^^
Datos históricos de la estación: Murcia-Puente Tocinos
Diario Informe para Julio 24, 2019 Unidades:  Métrico    Ingés   Ambas
Diario Semanal Mensual Anual
  Máxima: Mínima: Promedio:
Temperatura: 33.7 °C 18.8 °C 25 °C
Punto de rocio: 18.1 °C 8.2 °C 15.5 °C
Humedad: 81% 21% 59%
Velocidad viento: 14.8km/h 0km/h 6.1km/h
Racha viento: 33.8km/h - -
Viento- - SSO
Presión: 1018.3 hPa 1012.4 hPa -
Precipitación: 0.0 mm    
 
 
Tabla de datos para Julio 24, 2019
Hora Temperatura Punto de rocio Presión Viento Velocidad viento Racha viento Humedad Intensidad lluvia(por hora) Nubes
00:04 22.2 °C 18.1 °C 1018.3 hPa NO 2.2 km/h 4.8 km/h 78% 0.0 mm
00:09 22.1 °C 18.1 °C 1018.3 hPa NO 1.8 km/h 3.9 km/h 78% 0.0 mm
00:14 22.1 °C 18.1 °C 1018.3 hPa Calm   4.8 km/h 78% 0.0 mm
00:19 22 °C 18 °C 1018.3 hPa NO 0.4 km/h 3.7 km/h 78% 0.0 mm
00:24 22 °C 18 °C 1018.2 hPa NO 2.2 km/h 1.6 km/h 78% 0.0 mm
00:29 21.9 °C 18.1 °C 1018.2 hPa NO 1.8 km/h   78.9% 0.0 mm
00:34 21.9 °C 18.1 °C 1018.2 hPa Calm     79% 0.0 mm
00:39 21.8 °C 18 °C 1018.1 hPa Calm     79% 0.0 mm
00:44 21.8 °C 18 °C 1018.1 hPa Calm   2.3 km/h 79% 0.0 mm
00:49 21.8 °C 18 °C 1018.1 hPa Calm   3.7 km/h 79% 0.0 mm
00:54 21.8 °C 18 °C 1018.1 hPa Calm   3.9 km/h 79% 0.0 mm
00:59 21.8 °C 17.9 °C 1018.1 hPa SE 0.7 km/h 9.5 km/h 78.5% 0.0 mm
01:04 21.6 °C 17.4 °C 1018.1 hPa SSE 2.9 km/h 9.7 km/h 77.2% 0.0 mm
01:09 21.4 °C 17 °C 1018.0 hPa Sur 3.3 km/h 8.4 km/h 76% 0.0 mm
01:14 21.4 °C 16.8 °C 1018.0 hPa SSE 5 km/h 8 km/h 75.2% 0.0 mm
01:19 21.4 °C 16.6 °C 1018.0 hPa Sur 5 km/h 8 km/h 74.1% 0.0 mm
01:24 21.4 °C 16.6 °C 1017.9 hPa Sur 5 km/h 8 km/h 74% 0.0 mm
01:29 21.5 °C 16.7 °C 1017.9 hPa SSE 4.6 km/h 8 km/h 74% 0.0 mm
01:34 21.6 °C 16.8 °C 1017.9 hPa SSE 3.2 km/h 4.8 km/h 74% 0.0 mm
01:39 21.6 °C 16.9 °C 1017.9 hPa SSE 2.5 km/h   74.8% 0.0 mm
01:44 21.5 °C 16.9 °C 1017.9 hPa Calm   4.7 km/h 75% 0.0 mm
01:49 21.4 °C 16.8 °C 1017.9 hPa SSE 0.5 km/h 4.8 km/h 75% 0.0 mm
01:54 21.4 °C 16.8 °C 1017.8 hPa SSE 2.2 km/h 5.6 km/h 75% 0.0 mm
01:59 21.3 °C 16.7 °C 1017.8 hPa SSE 2.2 km/h 4.8 km/h 75% 0.0 mm
02:04 21.3 °C 16.7 °C 1017.9 hPa SSE 2.2 km/h 3.9 km/h 75% 0.0 mm
02:09 21.3 °C 16.7 °C 1017.9 hPa SSE 2.2 km/h 5.8 km/h 75% 0.0 mm
02:14 21.2 °C 16.6 °C 1017.9 hPa SSE 2.2 km/h 6.4 km/h 75% 0.0 mm
02:19 21.2 °C 16.6 °C 1017.9 hPa SSE 2.4 km/h 5.6 km/h 75% 0.0 mm
02:24 21.2 °C 16.4 °C 1017.9 hPa SE 2.9 km/h 7.4 km/h 74.2% 0.0 mm
02:29 21.2 °C 16.4 °C 1017.9 hPa SE 3 km/h 8 km/h 74% 0.0 mm
02:34 21.2 °C 16.6 °C 1017.9 hPa SSE 3.2 km/h 8 km/h 75% 0.0 mm
02:39 21.1 °C 16.5 °C 1017.8 hPa SSE 3.6 km/h 8 km/h 75% 0.0 mm
02:44 21.1 °C 16.5 °C 1017.8 hPa Sur 5 km/h 8.4 km/h 75% 0.0 mm
02:49 21.1 °C 16.5 °C 1017.8 hPa Sur 5 km/h 8.4 km/h 75% 0.0 mm
02:54 21.1 °C 16.5 °C 1017.7 hPa SSO 5 km/h 8.4 km/h 75% 0.0 mm
02:59 21 °C 16.4 °C 1017.7 hPa SSO 5.3 km/h 11.1 km/h 75% 0.0 mm
03:04 21 °C 16.4 °C 1017.7 hPa SSO 6.4 km/h 11.3 km/h 75% 0.0 mm
03:09 21 °C 16.4 °C 1017.6 hPa SSO 6.5 km/h 11.1 km/h 75% 0.0 mm
03:14 21 °C 16.4 °C 1017.6 hPa SSO 6.9 km/h 11.3 km/h 75% 0.0 mm
03:19 20.9 °C 16.3 °C 1017.6 hPa SSO 7.1 km/h 11.3 km/h 75.1% 0.0 mm
03:24 20.9 °C 16.5 °C 1017.4 hPa SSO 7.6 km/h 11.3 km/h 76% 0.0 mm
03:29 20.9 °C 16.5 °C 1017.4 hPa SSO 7.6 km/h 13 km/h 76% 0.0 mm
03:34 20.9 °C 16.5 °C 1017.4 hPa SO 7.6 km/h 13 km/h 76% 0.0 mm
03:39 20.9 °C 16.5 °C 1017.2 hPa SO 7.3 km/h 12.9 km/h 76% 0.0 mm
03:44 20.8 °C 16.4 °C 1017.2 hPa SO 6.5 km/h 11.1 km/h 76% 0.0 mm
03:49 20.8 °C 16.4 °C 1017.2 hPa SO 6.6 km/h 13 km/h 76% 0.0 mm
03:54 20.8 °C 16.3 °C 1016.9 hPa SO 6.9 km/h 12.9 km/h 75.5% 0.0 mm
03:59 20.8 °C 16.2 °C 1016.9 hPa SSO 6.6 km/h 10 km/h 75% 0.0 mm
04:04 20.8 °C 16.2 °C 1016.9 hPa SO 5.8 km/h 10 km/h 75% 0.0 mm
04:09 20.8 °C 16.3 °C 1016.8 hPa SO 5.8 km/h 9.7 km/h 75.6% 0.0 mm
04:14 20.8 °C 16.4 °C 1016.8 hPa SO 5.8 km/h 8.4 km/h 76% 0.0 mm
04:19 20.7 °C 16.3 °C 1016.8 hPa SO 5.6 km/h 8 km/h 76% 0.0 mm
04:24 20.7 °C 16.3 °C 1016.7 hPa OSO 5 km/h 8 km/h 76% 0.0 mm
04:29 20.6 °C 16.2 °C 1016.7 hPa SO 5 km/h 9.5 km/h 76% 0.0 mm
04:34 20.5 °C 16.2 °C 1016.8 hPa SO 5 km/h 10 km/h 76% 0.0 mm
04:39 20.4 °C 16.1 °C 1016.8 hPa OSO 5.1 km/h 9.7 km/h 76% 0.0 mm
04:44 20.4 °C 16 °C 1016.8 hPa OSO 5.8 km/h 10 km/h 76% 0.0 mm
04:49 20.4 °C 16 °C 1016.8 hPa OSO 6 km/h 11.1 km/h 76% 0.0 mm
04:54 20.3 °C 15.9 °C 1016.8 hPa OSO 6.9 km/h 11.3 km/h 76% 0.0 mm
04:59 20.3 °C 15.9 °C 1016.8 hPa SO 6.2 km/h 8 km/h 76% 0.0 mm
05:04 20.3 °C 15.9 °C 1016.8 hPa OSO 3.9 km/h 8.4 km/h 76% 0.0 mm
05:09 20.3 °C 15.9 °C 1016.7 hPa OSO 4.1 km/h 8 km/h 76% 0.0 mm
05:14 20.3 °C 15.9 °C 1016.7 hPa OSO 5 km/h 8 km/h 76% 0.0 mm
05:19 20.3 °C 15.9 °C 1016.7 hPa OSO 4.8 km/h 8 km/h 76% 0.0 mm
05:24 20.3 °C 16.1 °C 1016.6 hPa OSO 3.9 km/h 8 km/h 76.9% 0.0 mm
05:29 20.2 °C 16.1 °C 1016.6 hPa SO 4 km/h 8.4 km/h 77% 0.0 mm
05:34 20.2 °C 16.1 °C 1016.6 hPa SO 4.7 km/h 9.5 km/h 77% 0.0 mm
05:39 20.2 °C 16.1 °C 1016.6 hPa SSO 4.9 km/h 10 km/h 77% 0.0 mm
05:44 20.2 °C 16 °C 1016.6 hPa SO 5.8 km/h 10 km/h 76.9% 0.0 mm
05:49 20.2 °C 15.8 °C 1016.7 hPa SO 5.8 km/h 9.7 km/h 76% 0.0 mm
05:54 20.1 °C 15.9 °C 1016.7 hPa SO 5.8 km/h 10 km/h 76.7% 0.0 mm
05:59 20.1 °C 15.9 °C 1016.7 hPa SO 5.6 km/h 9.7 km/h 77% 0.0 mm
06:04 20 °C 15.9 °C 1016.7 hPa OSO 5 km/h 8.4 km/h 77% 0.0 mm
06:09 20 °C 15.8 °C 1016.6 hPa OSO 4.8 km/h 8 km/h 77% 0.0 mm
06:14 19.9 °C 15.7 °C 1016.6 hPa Sur 3.9 km/h 8 km/h 77% 0.0 mm
06:19 19.9 °C 15.8 °C 1016.6 hPa Sur 3.5 km/h 4.8 km/h 77.5% 0.0 mm
06:24 19.8 °C 15.8 °C 1016.6 hPa SSO 2.2 km/h 5.8 km/h 78% 0.0 mm
06:29 19.8 °C 15.9 °C 1016.6 hPa OSO 2.4 km/h 6.4 km/h 78.5% 0.0 mm
06:34 19.7 °C 15.9 °C 1016.6 hPa OSO 2.9 km/h 6.4 km/h 79% 0.0 mm
06:39 19.6 °C 15.8 °C 1016.5 hPa OSO 3.1 km/h 8 km/h 79% 0.0 mm
06:44 19.6 °C 15.8 °C 1016.5 hPa SO 3.9 km/h 8 km/h 79% 0.0 mm
06:49 19.5 °C 15.8 °C 1016.7 hPa SO 4.1 km/h 8 km/h 79% 0.0 mm
06:54 19.6 °C 15.8 °C 1016.7 hPa SO 5 km/h 9.5 km/h 79% 0.0 mm
06:59 19.6 °C 15.8 °C 1016.7 hPa SO 5 km/h 10 km/h 78.7% 0.0 mm
07:04 19.6 °C 15.7 °C 1016.7 hPa OSO 5 km/h 9.7 km/h 78% 0.0 mm
07:09 19.7 °C 15.8 °C 1016.7 hPa OSO 4.9 km/h 9.5 km/h 78% 0.0 mm
07:14 19.7 °C 15.8 °C 1016.7 hPa OSO 4.7 km/h 9.7 km/h 78% 0.0 mm
07:19 19.7 °C 15.8 °C 1016.9 hPa ONO 4.5 km/h 8 km/h 78% 0.0 mm
07:24 19.6 °C 15.8 °C 1016.9 hPa ONO 3.9 km/h 6.4 km/h 78.6% 0.0 mm
07:29 19.5 °C 15.8 °C 1016.9 hPa ONO 3.5 km/h 4.8 km/h 79% 0.0 mm
07:34 19.4 °C 15.7 °C 1017.0 hPa ONO 2.2 km/h 7.4 km/h 79.4% 0.0 mm
07:39 19.3 °C 15.8 °C 1017.0 hPa ONO 2.4 km/h 8 km/h 80% 0.0 mm
07:44 19.3 °C 15.7 °C 1017.0 hPa OSO 2.9 km/h 7.6 km/h 79.8% 0.0 mm
07:49 19.3 °C 15.6 °C 1017.0 hPa SSE 3.1 km/h 8 km/h 79.1% 0.0 mm
07:54 19.3 °C 15.8 °C 1016.9 hPa ESE 3.9 km/h 8 km/h 80% 0.0 mm
07:59 19.2 °C 15.6 °C 1016.9 hPa SE 4 km/h 8.4 km/h 80% 0.0 mm
08:04 19 °C 15.6 °C 1016.9 hPa SSE 4.7 km/h 11.1 km/h 80.5% 0.0 mm
08:09 18.9 °C 15.5 °C 1016.9 hPa SSE 5.1 km/h 11.3 km/h 81% 0.0 mm
08:14 18.8 °C 15.4 °C 1016.9 hPa SSE 6.9 km/h 11.3 km/h 81% 0.0 mm
08:19 18.8 °C 15.4 °C 1016.9 hPa SSE 6.9 km/h 11.3 km/h 81% 0.0 mm
08:24 18.8 °C 15.4 °C 1016.8 hPa SSE 6.9 km/h 10 km/h 81% 0.0 mm
08:29 18.8 °C 15.4 °C 1016.8 hPa SSE 6.8 km/h 10 km/h 81% 0.0 mm
08:34 18.8 °C 15.4 °C 1016.8 hPa Sur 6.5 km/h 9.7 km/h 81% 0.0 mm
08:39 18.8 °C 15.4 °C 1016.8 hPa Sur 6.1 km/h 8 km/h 81% 0.0 mm
08:44 18.9 °C 15.6 °C 1016.8 hPa SO 5 km/h 8 km/h 81% 0.0 mm
08:49 19.1 °C 15.8 °C 1016.9 hPa SSO 4.9 km/h 8 km/h 80.8% 0.0 mm
08:54 19.3 °C 15.7 °C 1016.9 hPa SO 4.7 km/h 9.5 km/h 79.5% 0.0 mm
08:59 19.6 °C 15.8 °C 1016.9 hPa OSO 4.7 km/h 9.7 km/h 78.5% 0.0 mm
09:04 19.8 °C 15.8 °C 1016.9 hPa OSO 5 km/h 10 km/h 77.9% 0.0 mm
09:09 20 °C 15.8 °C 1016.9 hPa Oeste 5.3 km/h 13 km/h 77% 0.0 mm
09:14 20.1 °C 15.9 °C 1016.9 hPa OSO 6.4 km/h 13 km/h 76.8% 0.0 mm
09:19 20.2 °C 15.8 °C 1017.1 hPa OSO 6.7 km/h 13 km/h 76% 0.0 mm
09:24 20.2 °C 15.9 °C 1017.1 hPa OSO 7.6 km/h 15.6 km/h 76% 0.0 mm
09:29 20.3 °C 16 °C 1017.1 hPa OSO 7.6 km/h 16.1 km/h 76% 0.0 mm
09:34 20.6 °C 16 °C 1017.3 hPa OSO 7.6 km/h 13.7 km/h 75% 0.0 mm
09:39 20.7 °C 16.1 °C 1017.3 hPa OSO 7.6 km/h 14.5 km/h 75% 0.0 mm
09:44 20.9 °C 16 °C 1017.3 hPa OSO 7.6 km/h 13.7 km/h 73.5% 0.0 mm
09:49 21.1 °C 16 °C 1017.4 hPa OSO 7.7 km/h 14.5 km/h 73.1% 0.0 mm
09:54 21.2 °C 16 °C 1017.4 hPa SO 8.4 km/h 11.3 km/h 72.3% 0.0 mm
09:59 21.4 °C 15.9 °C 1017.4 hPa SO 7.9 km/h 11.9 km/h 71.1% 0.0 mm
10:04 21.6 °C 15.7 °C 1017.5 hPa OSO 6.5 km/h 13 km/h 69.3% 0.0 mm
10:09 21.8 °C 15.8 °C 1017.5 hPa SO 6.6 km/h 13 km/h 68.8% 0.0 mm
10:14 21.9 °C 15.7 °C 1017.5 hPa SO 6.9 km/h 11.9 km/h 67.9% 0.0 mm
10:19 21.9 °C 15.7 °C 1017.5 hPa SSO 7.2 km/h 13 km/h 68% 0.0 mm
10:24 22.1 °C 15.9 °C 1017.4 hPa SO 8.4 km/h 12.9 km/h 68% 0.0 mm
10:29 22.2 °C 16.3 °C 1017.4 hPa Sur 8 km/h 11.9 km/h 69% 0.0 mm
10:34 22.3 °C 16.1 °C 1017.5 hPa SSO 6.5 km/h 13.7 km/h 68.1% 0.0 mm
10:39 22.3 °C 16.1 °C 1017.5 hPa SSO 6.9 km/h 14.8 km/h 68% 0.0 mm
10:44 22.3 °C 16 °C 1017.5 hPa SSO 8.7 km/h 14.8 km/h 67.3% 0.0 mm
10:49 22.5 °C 16 °C 1017.7 hPa SO 8.7 km/h 16.1 km/h 66.7% 0.0 mm
10:54 22.7 °C 15.9 °C 1017.7 hPa OSO 8.7 km/h 16.1 km/h 65.6% 0.0 mm
10:59 23 °C 15.8 °C 1017.7 hPa SO 8.6 km/h 13 km/h 63.8% 0.0 mm
11:04 23.2 °C 15.7 °C 1017.7 hPa SO 8.4 km/h 13 km/h 62.9% 0.0 mm
11:09 23.4 °C 15.4 °C 1017.6 hPa Oeste 8.4 km/h 13.7 km/h 60.8% 0.0 mm
11:14 23.7 °C 15.3 °C 1017.6 hPa Oeste 8.4 km/h 14.5 km/h 59.4% 0.0 mm
11:19 23.8 °C 15.3 °C 1017.6 hPa OSO 8.1 km/h 12.9 km/h 58.8% 0.0 mm
11:24 24.1 °C 15.2 °C 1017.6 hPa OSO 6.9 km/h 12.2 km/h 57.8% 0.0 mm
11:29 24.3 °C 15.2 °C 1017.6 hPa OSO 7.1 km/h 13 km/h 56.8% 0.0 mm
11:34 24.6 °C 15.2 °C 1017.6 hPa OSO 7.6 km/h 13 km/h 56% 0.0 mm
11:39 24.7 °C 15.2 °C 1017.5 hPa OSO 7.6 km/h 13 km/h 55.3% 0.0 mm
11:44 24.8 °C 15.3 °C 1017.5 hPa OSO 7.6 km/h 13 km/h 55.7% 0.0 mm
11:49 24.8 °C 15.4 °C 1017.5 hPa Sur 7.6 km/h 12.9 km/h 55.8% 0.0 mm
11:54 25 °C 15.6 °C 1017.4 hPa SSO 7.6 km/h 14 km/h 55.9% 0.0 mm
11:59 25.2 °C 15.5 °C 1017.4 hPa SO 7.6 km/h 14.8 km/h 54.9% 0.0 mm
12:04 25.3 °C 15.6 °C 1017.4 hPa SO 7.6 km/h 13.7 km/h 54.9% 0.0 mm
12:09 25.5 °C 15.8 °C 1017.2 hPa SSO 7.4 km/h 14.5 km/h 55% 0.0 mm
12:14 25.7 °C 15.8 °C 1017.2 hPa SO 6.9 km/h 12.9 km/h 54.6% 0.0 mm
12:19 25.8 °C 15.8 °C 1017.2 hPa OSO 6.9 km/h 13 km/h 53.9% 0.0 mm
12:24 26 °C 15.9 °C 1017.2 hPa SO 6.9 km/h 12.9 km/h 53.8% 0.0 mm
12:29 26.3 °C 15.7 °C 1017.2 hPa SO 6.9 km/h 14.8 km/h 52% 0.0 mm
12:34 26.3 °C 15.1 °C 1017.2 hPa SO 6.9 km/h 14.8 km/h 50.1% 0.0 mm
12:39 26.4 °C 15.1 °C 1017.0 hPa Oeste 7.2 km/h 14.8 km/h 50% 0.0 mm
12:44 26.7 °C 15 °C 1017.0 hPa Oeste 8.4 km/h 14.8 km/h 48.9% 0.0 mm
12:49 26.8 °C 15.1 °C 1017.0 hPa Oeste 8 km/h 14.5 km/h 48.9% 0.0 mm
12:54 27 °C 15.3 °C 1016.8 hPa SO 6.9 km/h 12.9 km/h 48.6% 0.0 mm
12:59 27.3 °C 15.1 °C 1016.8 hPa SSO 6.8 km/h 13 km/h 47.5% 0.0 mm
13:04 27.5 °C 15 °C 1016.8 hPa SO 6.5 km/h 13 km/h 46.6% 0.0 mm
13:09 27.6 °C 14.8 °C 1016.6 hPa SO 6.6 km/h 14.8 km/h 45.5% 0.0 mm
13:14 27.8 °C 14.6 °C 1016.6 hPa SO 6.9 km/h 14.5 km/h 44.8% 0.0 mm
13:19 27.9 °C 14.4 °C 1016.6 hPa SSO 6.7 km/h 11.3 km/h 43.8% 0.0 mm
13:24 28.2 °C 14.5 °C 1016.5 hPa SSO 5.8 km/h 13.7 km/h 43.2% 0.0 mm
13:29 28.3 °C 13.9 °C 1016.5 hPa OSO 6.2 km/h 14.5 km/h 41% 0.0 mm
13:34 28.6 °C 13.7 °C 1016.5 hPa SSO 7.6 km/h 14.8 km/h 40% 0.0 mm
13:39 28.7 °C 14 °C 1016.3 hPa Sur 7.6 km/h 14.5 km/h 40.5% 0.0 mm
13:44 28.8 °C 13.9 °C 1016.3 hPa Sur 7.6 km/h 13 km/h 40% 0.0 mm
13:49 29.1 °C 13.9 °C 1016.3 hPa Sur 7.7 km/h 13.7 km/h 39.4% 0.0 mm
13:54 29.3 °C 13.5 °C 1016.0 hPa Sur 8.4 km/h 14.8 km/h 38.1% 0.0 mm
13:59 29.4 °C 13.1 °C 1016.0 hPa SO 8.2 km/h 14.5 km/h 36.8% 0.0 mm
14:04 29.5 °C 13.2 °C 1016.0 hPa SO 7.6 km/h 11.9 km/h 36.7% 0.0 mm
14:09 29.7 °C 12.4 °C 1015.6 hPa SSO 7.4 km/h 16.7 km/h 34.4% 0.0 mm
14:14 29.8 °C 12.4 °C 1015.6 hPa SSO 6.9 km/h 16.7 km/h 34.4% 0.0 mm
14:19 29.9 °C 11.9 °C 1015.6 hPa SO 7.1 km/h 14.5 km/h 32.9% 0.0 mm
14:24 30.1 °C 12.2 °C 1015.3 hPa SSE 7.6 km/h 14.5 km/h 33.2% 0.0 mm
14:29 30.3 °C 12.5 °C 1015.3 hPa Sur 7.2 km/h 12.9 km/h 33.8% 0.0 mm
14:34 30.5 °C 12.4 °C 1015.3 hPa SSO 5.8 km/h 13.7 km/h 32.9% 0.0 mm
14:39 30.6 °C 12.5 °C 1015.0 hPa SSE 6.3 km/h 14.5 km/h 33% 0.0 mm
14:44 30.6 °C 12.4 °C 1015.0 hPa SSE 8.4 km/h 14.5 km/h 32.7% 0.0 mm
14:49 30.7 °C 12.1 °C 1015.0 hPa SSE 8 km/h 11.3 km/h 32.1% 0.0 mm
14:54 30.8 °C 12.2 °C 1014.7 hPa SE 6.5 km/h 11.3 km/h 32% 0.0 mm
14:59 31.1 °C 11.9 °C 1014.7 hPa SSE 6.3 km/h 18.5 km/h 30.8% 0.0 mm
15:04 31.2 °C 11.4 °C 1014.7 hPa SSO 5.8 km/h 19.3 km/h 29.6% 0.0 mm
15:09 31.2 °C 10.6 °C 1014.4 hPa Oeste 5.8 km/h 9.7 km/h 28% 0.0 mm
15:14 31.3 °C 10.8 °C 1014.4 hPa Sur 5.8 km/h 11.9 km/h 28.2% 0.0 mm
15:19 31.4 °C 10.8 °C 1014.4 hPa Sur 5.9 km/h 13 km/h 28.1% 0.0 mm
15:24 31.6 °C 10.4 °C 1014.0 hPa SSE 6.4 km/h 12.9 km/h 27.2% 0.0 mm
15:29 31.7 °C 10.4 °C 1014.0 hPa SSO 6.6 km/h 14.8 km/h 27% 0.0 mm
15:34 31.7 °C 10.3 °C 1014.0 hPa SSE 6.9 km/h 14.5 km/h 26.8% 0.0 mm
15:39 31.8 °C 10.1 °C 1013.9 hPa SE 6.8 km/h 12.9 km/h 26.2% 0.0 mm
15:44 31.9 °C 9.6 °C 1013.9 hPa SO 6.5 km/h 13 km/h 25.3% 0.0 mm
15:49 32.1 °C 9.6 °C 1013.9 hPa SO 6.1 km/h 12.9 km/h 25.1% 0.0 mm
15:54 32.4 °C 9.8 °C 1013.8 hPa Sur 4.7 km/h 10 km/h 24.9% 0.0 mm
15:59 32.7 °C 9.6 °C 1013.8 hPa ONO 4.4 km/h 9.7 km/h 24.2% 0.0 mm
16:04 32.9 °C 9.7 °C 1013.8 hPa Oeste 3.9 km/h 8 km/h 24.1% 0.0 mm
16:09 33.1 °C 9.2 °C 1013.6 hPa NO 3.9 km/h 9.5 km/h 23% 0.0 mm
16:14 33.1 °C 9.4 °C 1013.6 hPa Oeste 3.9 km/h 9.7 km/h 23.3% 0.0 mm
16:19 33.3 °C 9 °C 1013.6 hPa SSO 3.9 km/h 13 km/h 22.4% 0.0 mm
16:24 33.3 °C 8.4 °C 1013.5 hPa SO 3.9 km/h 13 km/h 21.6% 0.0 mm
16:29 33.2 °C 8.6 °C 1013.5 hPa SSE 4.4 km/h 11.3 km/h 22% 0.0 mm
16:34 33.1 °C 8.7 °C 1013.5 hPa SE 6.4 km/h 11.3 km/h 22.2% 0.0 mm
16:39 33.1 °C 8.6 °C 1013.3 hPa Oeste 6.1 km/h 9.3 km/h 22.1% 0.0 mm
16:44 33.3 °C 8.6 °C 1013.3 hPa SO 4.7 km/h 9.7 km/h 21.8% 0.0 mm
16:49 33.6 °C 8.2 °C 1013.3 hPa ONO 4.5 km/h 9.7 km/h 21% 0.0 mm
16:54 33.7 °C 8.3 °C 1013.2 hPa SE 3.9 km/h 8 km/h 21% 0.0 mm
16:59 33.7 °C 8.4 °C 1013.2 hPa SSO 4.1 km/h 11.9 km/h 21% 0.0 mm
17:04 33.6 °C 12.6 °C 1013.2 hPa SSE 4.6 km/h 20.4 km/h 28.5% 0.0 mm
17:09 33 °C 14.8 °C 1012.9 hPa SE 5.6 km/h 20.9 km/h 33.6% 0.0 mm
17:14 32.5 °C 16.2 °C 1012.9 hPa ESE 9.5 km/h 20.9 km/h 37.8% 0.0 mm
17:19 32.2 °C 16.1 °C 1012.9 hPa ESE 10 km/h 22.2 km/h 38.2% 0.0 mm
17:24 31.9 °C 16.3 °C 1012.7 hPa ESE 11.9 km/h 22.5 km/h 39.3% 0.0 mm
17:29 31.8 °C 15.8 °C 1012.7 hPa SE 12 km/h 20.9 km/h 38.3% 0.0 mm
17:34 31.9 °C 16.2 °C 1012.7 hPa SE 12.2 km/h 16.1 km/h 38.9% 0.0 mm
17:39 31.8 °C 16.8 °C 1012.6 hPa ESE 11.8 km/h 20.4 km/h 40.7% 0.0 mm
17:44 31.6 °C 17.1 °C 1012.6 hPa ESE 10.3 km/h 22.2 km/h 41.9% 0.0 mm
17:49 31.3 °C 17 °C 1012.6 hPa ESE 11.1 km/h 24.1 km/h 42.2% 0.0 mm
17:54 31.3 °C 17 °C 1012.6 hPa ESE 13.7 km/h 24.1 km/h 42.4% 0.0 mm
17:59 31.2 °C 16.9 °C 1012.6 hPa ESE 13.9 km/h 27 km/h 42.3% 0.0 mm
18:04 31.2 °C 17 °C 1012.6 hPa SE 14.8 km/h 27.4 km/h 42.8% 0.0 mm
18:09 31.2 °C 17.1 °C 1012.4 hPa SE 14.2 km/h 22.2 km/h 43% 0.0 mm
18:14 31.2 °C 17.1 °C 1012.4 hPa SE 11.9 km/h 22.5 km/h 43.1% 0.0 mm
18:19 31.2 °C 17.1 °C 1012.4 hPa SE 12 km/h 33.5 km/h 43% 0.0 mm
18:24 31.1 °C 17 °C 1012.4 hPa SSE 12.2 km/h 33.8 km/h 42.8% 0.0 mm
18:29 30.9 °C 16.8 °C 1012.4 hPa SSE 12.8 km/h 25.7 km/h 42.8% 0.0 mm
18:34 30.8 °C 16.8 °C 1012.4 hPa SSE 14.8 km/h 20.9 km/h 43% 0.0 mm
18:39 30.8 °C 16.7 °C 1012.4 hPa SSE 14.2 km/h 22.2 km/h 42.8% 0.0 mm
18:44 30.8 °C 16.6 °C 1012.4 hPa Sur 11.9 km/h 22.5 km/h 42.4% 0.0 mm
18:49 30.8 °C 16.4 °C 1012.5 hPa Sur 11.5 km/h 19.3 km/h 42% 0.0 mm
18:54 30.8 °C 16.4 °C 1012.5 hPa SSE 10.3 km/h 18.3 km/h 42% 0.0 mm
18:59 30.6 °C 16.3 °C 1012.5 hPa Sur 10.2 km/h 19.3 km/h 42.1% 0.0 mm
19:04 30.6 °C 16.2 °C 1012.6 hPa Sur 10 km/h 19 km/h 42% 0.0 mm
19:09 30.4 °C 16 °C 1012.6 hPa Sur 10.2 km/h 20.4 km/h 41.9% 0.0 mm
19:14 30.3 °C 15.9 °C 1012.6 hPa Sur 11.1 km/h 20.9 km/h 42% 0.0 mm
19:19 30.2 °C 16.1 °C 1012.6 hPa SO 10.9 km/h 19.3 km/h 42.7% 0.0 mm
19:24 30 °C 16 °C 1012.6 hPa SO 10 km/h 19.3 km/h 43% 0.0 mm
19:29 29.7 °C 16.1 °C 1012.6 hPa SO 10.2 km/h 19.3 km/h 43.9% 0.0 mm
19:34 29.4 °C 15.9 °C 1012.6 hPa SO 11.1 km/h 19.3 km/h 44% 0.0 mm
19:39 29.3 °C 16 °C 1012.6 hPa SO 10.5 km/h 14.5 km/h 44.6% 0.0 mm
19:44 29.2 °C 16 °C 1012.6 hPa SO 8.4 km/h 14.5 km/h 45% 0.0 mm
19:49 29.1 °C 16 °C 1012.6 hPa OSO 8.1 km/h 13 km/h 45.2% 0.0 mm
19:54 28.9 °C 16.1 °C 1012.6 hPa SO 6.9 km/h 15.6 km/h 46% 0.0 mm
19:59 28.7 °C 16.2 °C 1012.6 hPa SO 6.9 km/h 16.1 km/h 46.7% 0.0 mm
20:04 28.6 °C 16.3 °C 1012.7 hPa SO 6.9 km/h 9.7 km/h 47.3% 0.0 mm
20:09 28.4 °C 16.3 °C 1012.7 hPa OSO 6.5 km/h 9.7 km/h 48% 0.0 mm
20:14 28.2 °C 16.3 °C 1012.7 hPa SO 4.7 km/h 8 km/h 48.2% 0.0 mm
20:19 28.1 °C 16.4 °C 1012.8 hPa SO 4.5 km/h 8.4 km/h 49% 0.0 mm
20:24 27.9 °C 16.2 °C 1012.8 hPa SO 3.9 km/h 9.3 km/h 49% 0.0 mm
20:29 27.8 °C 16.3 °C 1012.8 hPa SO 3.9 km/h 9.7 km/h 49.8% 0.0 mm
20:34 27.7 °C 16.3 °C 1013.0 hPa SO 3.9 km/h 8 km/h 50% 0.0 mm
20:39 27.6 °C 16.2 °C 1013.0 hPa SO 3.6 km/h 8 km/h 50% 0.0 mm
20:44 27.6 °C 16.2 °C 1013.0 hPa Sur 2.9 km/h 7.4 km/h 50% 0.0 mm
20:49 27.5 °C 16.3 °C 1013.1 hPa SSO 3.3 km/h 8 km/h 50.5% 0.0 mm
20:54 27.4 °C 16.4 °C 1013.1 hPa OSO 4.7 km/h 8 km/h 51% 0.0 mm
20:59 27.3 °C 16.4 °C 1013.1 hPa SO 4.3 km/h 7.4 km/h 51.3% 0.0 mm
21:04 27.2 °C 16.5 °C 1013.1 hPa SO 3.2 km/h 8 km/h 52% 0.0 mm
21:09 27.2 °C 16.4 °C 1013.1 hPa OSO 3.5 km/h 9.5 km/h 52% 0.0 mm
21:14 27 °C 16.5 °C 1013.1 hPa OSO 4.7 km/h 9.7 km/h 52.7% 0.0 mm
21:19 26.9 °C 16.5 °C 1013.2 hPa OSO 4.5 km/h 9.3 km/h 53% 0.0 mm
21:24 26.8 °C 16.6 °C 1013.2 hPa Oeste 3.9 km/h 9.7 km/h 53.5% 0.0 mm
21:29 26.7 °C 16.6 °C 1013.2 hPa Oeste 3.7 km/h 8 km/h 54% 0.0 mm
21:34 26.6 °C 16.5 °C 1013.3 hPa SO 3.2 km/h 8.7 km/h 54% 0.0 mm
21:39 26.5 °C 16.4 °C 1013.3 hPa OSO 3.4 km/h 9.7 km/h 54.1% 0.0 mm
21:44 26.4 °C 16.6 °C 1013.3 hPa SO 3.9 km/h 10 km/h 54.9% 0.0 mm
21:49 26.4 °C 16.6 °C 1013.3 hPa OSO 4.1 km/h 9.7 km/h 55% 0.0 mm
21:54 26.3 °C 16.6 °C 1013.3 hPa SO 5 km/h 9.7 km/h 55.2% 0.0 mm
21:59 26.3 °C 16.8 °C 1013.3 hPa SO 4.5 km/h 6.4 km/h 56% 0.0 mm
22:04 26.2 °C 16.7 °C 1013.5 hPa SO 3.2 km/h 8.4 km/h 56% 0.0 mm
22:09 26.1 °C 16.8 °C 1013.5 hPa OSO 3.5 km/h 8 km/h 56.5% 0.0 mm
22:14 26 °C 16.8 °C 1013.5 hPa OSO 4.7 km/h 9.5 km/h 57% 0.0 mm
22:19 25.8 °C 16.9 °C 1013.5 hPa SO 5 km/h 10 km/h 57.8% 0.0 mm
22:24 25.7 °C 17 °C 1013.5 hPa SO 6.4 km/h 13 km/h 58.5% 0.0 mm
22:29 25.6 °C 17 °C 1013.5 hPa SO 6.6 km/h 12.9 km/h 59% 0.0 mm
22:34 25.5 °C 17.1 °C 1013.5 hPa SO 6.9 km/h 11.9 km/h 59.4% 0.0 mm
22:39 25.5 °C 17.1 °C 1013.5 hPa SO 6.8 km/h 11.3 km/h 60% 0.0 mm
22:44 25.4 °C 17.1 °C 1013.5 hPa SO 6.5 km/h 9.7 km/h 60% 0.0 mm
22:49 25.4 °C 17.1 °C 1013.5 hPa SO 6.3 km/h 9.7 km/h 60% 0.0 mm
22:54 25.4 °C 17.1 °C 1013.5 hPa SO 5.8 km/h 10 km/h 60% 0.0 mm
22:59 25.4 °C 17.1 °C 1013.5 hPa SO 5.9 km/h 11.1 km/h 60.1% 0.0 mm
23:04 25.4 °C 17.3 °C 1013.6 hPa SO 6.4 km/h 13.7 km/h 61% 0.0 mm
23:09 25.3 °C 17.3 °C 1013.6 hPa SSO 6.6 km/h 15.6 km/h 61.3% 0.0 mm
23:14 25.2 °C 17.4 °C 1013.6 hPa SSO 6.9 km/h 18.5 km/h 62% 0.0 mm
23:19 25.2 °C 17.6 °C 1013.7 hPa SSO 7.6 km/h 19.3 km/h 62.6% 0.0 mm
23:24 25.1 °C 17.5 °C 1013.7 hPa SSO 10 km/h 17.7 km/h 63% 0.0 mm
23:29 24.9 °C 17.6 °C 1013.7 hPa SSO 9.9 km/h 15.6 km/h 63.7% 0.0 mm
23:34 24.8 °C 17.6 °C 1013.7 hPa SSO 9.5 km/h 16.1 km/h 64% 0.0 mm
23:39 24.8 °C 17.5 °C 1013.7 hPa SSO 9.3 km/h 13 km/h 64% 0.0 mm
23:44 24.8 °C 17.6 °C 1013.7 hPa SSO 8.4 km/h 11.9 km/h 64.4% 0.0 mm
23:49 24.7 °C 17.7 °C 1013.7 hPa SO 8.1 km/h 11.3 km/h 65% 0.0 mm
23:54 24.7 °C 17.6 °C 1013.7 hPa SO 6.9 km/h 11.3 km/h 65% 0.0 mm
23:59 24.6 °C 17.7 °C 1013.7 hPa SSO 6.8 km/h 10 km/h 65.6% 0.0 mm
Murcia-Puente Tocinos, España
Compliments of Weather Underground - 3 mb

La estación de MeteoMurcia.com, publica sus datos en los siguientes proyectos:

Weather Underground PWS IMURCIAP2 Meteoclimatic www.awekas.at

W3Counter
Web Analytics